createdAt,value
2018-08-23T00:01:33.775Z,22.36
2018-08-23T00:04:07.677Z,22.35
2018-08-23T00:06:37.246Z,22.33
2018-08-23T00:09:08.522Z,22.31
2018-08-23T00:11:41.090Z,22.29
2018-08-23T00:14:10.349Z,22.27
2018-08-23T00:16:46.939Z,22.25
2018-08-23T00:19:16.475Z,22.23
2018-08-23T00:21:48.072Z,22.22
2018-08-23T00:24:24.144Z,22.19
2018-08-23T00:26:57.448Z,22.16
2018-08-23T00:29:28.236Z,22.14
2018-08-23T00:32:02.499Z,22.11
2018-08-23T00:34:32.307Z,22.07
2018-08-23T00:37:01.826Z,22.03
2018-08-23T00:39:30.573Z,21.99
2018-08-23T00:42:04.397Z,21.94
2018-08-23T00:44:48.112Z,21.89
2018-08-23T00:47:17.535Z,21.87
2018-08-23T00:49:46.052Z,21.86
2018-08-23T00:52:17.674Z,21.86
2018-08-23T00:54:52.979Z,21.85
2018-08-23T00:57:21.578Z,21.82
2018-08-23T00:59:55.180Z,21.79
2018-08-23T01:02:23.720Z,21.78
2018-08-23T01:04:52.459Z,21.77
2018-08-23T01:07:22.741Z,21.75
2018-08-23T01:09:51.230Z,21.72
2018-08-23T01:12:20.669Z,21.70
2018-08-23T01:14:51.976Z,21.68
2018-08-23T01:17:20.634Z,21.66
2018-08-23T01:19:59.298Z,21.64
2018-08-23T01:22:27.773Z,21.61
2018-08-23T01:24:56.901Z,21.60
2018-08-23T01:27:30.695Z,21.57
2018-08-23T01:29:59.303Z,21.53
2018-08-23T01:32:30.952Z,21.52
2018-08-23T01:34:59.476Z,21.49
2018-08-23T01:37:36.942Z,21.47
2018-08-23T01:40:08.404Z,21.47
2018-08-23T01:42:38.842Z,21.43
2018-08-23T01:45:08.994Z,21.39
2018-08-23T01:47:55.717Z,21.37
2018-08-23T01:50:25.082Z,21.36
2018-08-23T01:52:54.654Z,21.34
2018-08-23T01:55:24.161Z,21.33
2018-08-23T01:57:53.040Z,21.31
2018-08-23T02:00:23.129Z,21.29
2018-08-23T02:02:51.682Z,21.24
2018-08-23T02:05:20.190Z,21.19
2018-08-23T02:07:48.969Z,21.16
2018-08-23T02:10:17.687Z,21.16
2018-08-23T02:12:57.593Z,21.14
2018-08-23T02:15:26.559Z,21.11
2018-08-23T02:17:59.169Z,21.10
2018-08-23T02:20:28.557Z,21.09
2018-08-23T02:22:57.163Z,21.07
2018-08-23T02:25:25.949Z,21.01
2018-08-23T02:28:03.790Z,21.04
2018-08-23T02:30:44.551Z,21.03
2018-08-23T02:33:13.940Z,21.01
2018-08-23T02:36:05.754Z,20.99
2018-08-23T02:38:35.353Z,20.97
2018-08-23T02:41:04.039Z,20.95
2018-08-23T02:43:32.833Z,20.93
2018-08-23T02:46:03.838Z,20.92
2018-08-23T02:48:32.300Z,20.89
2018-08-23T02:51:01.584Z,20.88
2018-08-23T02:53:39.257Z,20.86
2018-08-23T02:56:10.443Z,20.83
2018-08-23T02:58:48.095Z,20.80
2018-08-23T03:01:16.864Z,20.79
2018-08-23T03:04:02.891Z,20.77
2018-08-23T03:06:36.819Z,20.74
2018-08-23T03:09:07.461Z,20.73
2018-08-23T03:11:37.421Z,20.71
2018-08-23T03:14:06.447Z,20.70
2018-08-23T03:16:48.484Z,20.68
2018-08-23T03:19:17.318Z,20.67
2018-08-23T03:21:46.559Z,20.65
2018-08-23T03:24:20.923Z,20.63
2018-08-23T03:26:49.774Z,20.62
2018-08-23T03:29:18.570Z,20.59
2018-08-23T03:31:47.162Z,20.56
2018-08-23T03:34:16.107Z,20.55
2018-08-23T03:36:44.577Z,20.53
2018-08-23T03:39:14.283Z,20.51
2018-08-23T03:41:43.227Z,20.49
2018-08-23T03:44:22.597Z,20.47
2018-08-23T03:46:53.955Z,20.43
2018-08-23T03:49:36.377Z,20.39
2018-08-23T03:52:05.061Z,20.35
2018-08-23T03:54:33.932Z,20.34
2018-08-23T03:57:17.666Z,20.33
2018-08-23T03:59:47.779Z,20.32
2018-08-23T04:02:17.593Z,20.31
2018-08-23T04:04:48.178Z,20.31
2018-08-23T04:07:16.945Z,20.28
2018-08-23T04:09:46.073Z,20.26
2018-08-23T04:12:14.997Z,20.21
2018-08-23T04:14:43.994Z,20.19
2018-08-23T04:17:12.721Z,20.18
2018-08-23T04:19:46.640Z,20.17
2018-08-23T04:22:15.439Z,20.16
2018-08-23T04:24:49.281Z,20.14
2018-08-23T04:27:19.496Z,20.13
2018-08-23T04:29:49.213Z,20.11
2018-08-23T04:32:26.590Z,20.09
2018-08-23T04:34:55.876Z,20.09
2018-08-23T04:37:24.799Z,20.08
2018-08-23T04:40:05.878Z,20.05
2018-08-23T04:42:34.912Z,20.03
2018-08-23T04:45:13.222Z,20.02
2018-08-23T04:47:50.576Z,20.02
2018-08-23T04:50:19.776Z,19.98
2018-08-23T04:52:48.704Z,19.95
2018-08-23T04:55:17.912Z,19.96
2018-08-23T04:57:46.619Z,19.97
2018-08-23T05:00:15.582Z,19.97
2018-08-23T05:02:44.523Z,19.98
2018-08-23T05:05:13.756Z,19.97
2018-08-23T05:07:42.520Z,19.99
2018-08-23T05:10:11.612Z,20.01
2018-08-23T05:12:41.114Z,19.99
2018-08-23T05:15:11.472Z,19.96
2018-08-23T05:17:40.696Z,19.96
2018-08-23T05:20:09.907Z,19.95
2018-08-23T05:22:39.831Z,19.98
2018-08-23T05:25:16.832Z,19.99
2018-08-23T05:28:01.830Z,20.03
2018-08-23T05:30:31.571Z,20.07
2018-08-23T05:33:05.888Z,20.07
2018-08-23T05:35:34.766Z,20.09
2018-08-23T05:38:03.507Z,20.12
2018-08-23T05:40:37.285Z,20.09
2018-08-23T05:43:05.963Z,20.10
2018-08-23T05:45:40.431Z,20.10
2018-08-23T05:48:21.332Z,20.11
2018-08-23T05:50:50.161Z,20.13
2018-08-23T05:53:19.797Z,20.14
2018-08-23T05:55:51.253Z,20.16
2018-08-23T05:58:24.659Z,20.22
2018-08-23T06:00:54.475Z,20.30
2018-08-23T06:03:23.124Z,20.35
2018-08-23T06:05:52.179Z,20.42
2018-08-23T06:08:21.008Z,20.53
2018-08-23T06:10:52.465Z,20.57
2018-08-23T06:13:21.369Z,20.62
2018-08-23T06:15:52.749Z,20.65
2018-08-23T06:18:22.141Z,20.68
2018-08-23T06:20:51.762Z,20.67
2018-08-23T06:23:21.129Z,20.70
2018-08-23T06:25:50.362Z,20.76
2018-08-23T06:28:22.132Z,20.80
2018-08-23T06:30:50.958Z,20.80
2018-08-23T06:34:01.146Z,20.83
2018-08-23T06:36:32.257Z,20.90
2018-08-23T06:39:01.020Z,20.90
2018-08-23T06:41:30.232Z,20.91
2018-08-23T06:44:00.043Z,20.97
2018-08-23T06:46:28.900Z,21.03
2018-08-23T06:48:57.916Z,21.09
2018-08-23T06:51:26.841Z,21.16
2018-08-23T06:53:59.829Z,21.25
2018-08-23T06:56:28.722Z,21.29
2018-08-23T06:58:58.123Z,21.34
2018-08-23T07:01:36.209Z,21.36
2018-08-23T07:04:09.264Z,21.38
2018-08-23T07:06:38.533Z,21.40
2018-08-23T07:09:10.836Z,21.42
2018-08-23T07:11:40.450Z,21.46
2018-08-23T07:14:16.206Z,21.50
2018-08-23T07:16:46.426Z,21.54
2018-08-23T07:19:26.730Z,21.59
2018-08-23T07:21:56.129Z,21.66
2018-08-23T07:24:53.920Z,21.71
2018-08-23T07:27:23.450Z,21.74
2018-08-23T07:29:54.604Z,21.80
2018-08-23T07:32:27.973Z,21.86
2018-08-23T07:35:08.465Z,21.87
2018-08-23T07:37:38.699Z,21.85
2018-08-23T07:40:10.238Z,21.86
2018-08-23T07:42:40.088Z,21.92
2018-08-23T07:45:09.525Z,22.00
2018-08-23T07:47:41.201Z,22.07
2018-08-23T07:50:10.219Z,22.10
2018-08-23T07:52:41.617Z,22.15
2018-08-23T07:55:10.429Z,22.17
2018-08-23T07:57:39.885Z,22.23
2018-08-23T08:00:41.616Z,22.32
2018-08-23T08:03:12.115Z,22.39
2018-08-23T08:05:45.915Z,22.45
2018-08-23T08:08:14.867Z,22.49
2018-08-23T08:10:45.543Z,22.53
2018-08-23T08:13:14.401Z,22.61
2018-08-23T08:15:43.322Z,22.71
2018-08-23T08:18:17.610Z,22.78
2018-08-23T08:20:52.818Z,22.84
2018-08-23T08:23:21.664Z,22.91
2018-08-23T08:25:50.969Z,22.98
2018-08-23T08:28:20.041Z,23.03
2018-08-23T08:30:53.261Z,23.11
2018-08-23T08:33:23.096Z,23.14
2018-08-23T08:35:55.910Z,23.17
2018-08-23T08:38:25.165Z,23.17
2018-08-23T08:40:55.095Z,23.18
2018-08-23T08:43:24.233Z,23.21
2018-08-23T08:45:59.147Z,23.29
2018-08-23T08:48:30.835Z,23.40
2018-08-23T08:51:17.090Z,23.45
2018-08-23T08:53:46.436Z,23.49
2018-08-23T08:56:15.614Z,23.51
2018-08-23T08:58:44.536Z,23.55
2018-08-23T09:01:13.297Z,23.63
2018-08-23T09:03:42.219Z,23.74
2018-08-23T09:06:11.880Z,23.86
2018-08-23T09:08:40.646Z,23.96
2018-08-23T09:11:09.451Z,24.01
2018-08-23T09:13:43.629Z,24.10
2018-08-23T09:16:13.165Z,24.11
2018-08-23T09:18:45.825Z,24.12
2018-08-23T09:21:14.989Z,24.22
2018-08-23T09:23:44.033Z,24.31
2018-08-23T09:26:12.711Z,24.38
2018-08-23T09:28:41.350Z,24.43
2018-08-23T09:31:10.743Z,24.54
2018-08-23T09:33:39.392Z,24.62
2018-08-23T09:36:08.097Z,24.72
2018-08-23T09:38:36.976Z,24.84
2018-08-23T09:41:05.803Z,24.94
2018-08-23T09:43:34.749Z,24.96
2018-08-23T09:46:03.777Z,24.90
2018-08-23T09:48:32.558Z,24.97
2018-08-23T09:51:01.397Z,25.01
2018-08-23T09:53:30.783Z,24.94
2018-08-23T09:55:59.555Z,24.97
2018-08-23T09:58:34.143Z,25.04
2018-08-23T10:01:08.166Z,25.12
2018-08-23T10:03:42.142Z,25.31
2018-08-23T10:06:16.237Z,25.48
2018-08-23T10:08:51.254Z,25.49
2018-08-23T10:11:25.308Z,25.40
2018-08-23T10:13:59.447Z,25.50
2018-08-23T10:16:33.532Z,25.61
2018-08-23T10:19:07.441Z,25.72
2018-08-23T10:21:41.512Z,25.81
2018-08-23T10:24:16.865Z,25.93
2018-08-23T10:26:46.030Z,26.03
2018-08-23T10:29:15.122Z,26.22
2018-08-23T10:31:43.879Z,26.35
2018-08-23T10:34:13.526Z,26.38
2018-08-23T10:36:42.257Z,26.47
2018-08-23T10:39:13.516Z,26.55
2018-08-23T10:41:43.011Z,26.59
2018-08-23T10:44:12.337Z,26.69
2018-08-23T10:46:46.237Z,26.82
2018-08-23T10:49:15.873Z,26.93
2018-08-23T10:51:44.678Z,26.98
2018-08-23T10:54:13.917Z,27.11
2018-08-23T10:56:42.897Z,27.21
2018-08-23T10:59:11.881Z,27.30
2018-08-23T11:01:41.449Z,27.18
2018-08-23T11:04:11.015Z,27.15
2018-08-23T11:06:45.192Z,27.31
2018-08-23T11:09:19.024Z,27.49
2018-08-23T11:11:50.797Z,27.56
2018-08-23T11:14:24.692Z,27.55
2018-08-23T11:16:59.421Z,27.64
2018-08-23T11:19:33.181Z,27.83
2018-08-23T11:22:02.437Z,28.04
2018-08-23T11:24:32.162Z,28.12
2018-08-23T11:27:00.950Z,28.08
2018-08-23T11:29:29.980Z,28.10
2018-08-23T11:31:58.727Z,28.19
2018-08-23T11:34:34.079Z,28.29
2018-08-23T11:37:02.866Z,28.45
2018-08-23T11:39:32.214Z,28.60
2018-08-23T11:42:01.080Z,28.65
2018-08-23T11:44:29.861Z,28.53
2018-08-23T11:46:58.590Z,28.58
2018-08-23T11:49:27.411Z,28.71
2018-08-23T11:51:56.220Z,28.69
2018-08-23T11:54:24.877Z,28.55
2018-08-23T11:56:53.666Z,28.61
2018-08-23T11:59:22.594Z,28.69
2018-08-23T12:01:51.817Z,28.83
2018-08-23T12:04:20.968Z,28.92
2018-08-23T12:06:53.877Z,28.99
2018-08-23T12:09:26.858Z,29.03
2018-08-23T12:11:55.964Z,29.09
2018-08-23T12:14:25.348Z,29.13
2018-08-23T12:16:54.421Z,29.21
2018-08-23T12:19:23.949Z,29.37
2018-08-23T12:21:53.187Z,29.45
2018-08-23T12:24:22.255Z,29.60
2018-08-23T12:26:51.314Z,29.56
2018-08-23T12:29:20.088Z,29.47
2018-08-23T12:31:49.037Z,29.41
2018-08-23T12:34:28.652Z,29.39
2018-08-23T12:37:02.751Z,29.45
2018-08-23T12:39:36.705Z,29.41
2018-08-23T12:42:11.621Z,29.20
2018-08-23T12:44:54.010Z,28.95
2018-08-23T12:47:23.355Z,29.04
2018-08-23T12:49:52.507Z,29.10
2018-08-23T12:52:21.321Z,29.38
2018-08-23T12:54:50.170Z,29.68
2018-08-23T12:57:19.829Z,30.04
2018-08-23T12:59:48.685Z,30.42
2018-08-23T13:02:17.703Z,30.96
2018-08-23T13:04:46.749Z,31.61
2018-08-23T13:07:15.649Z,32.19
2018-08-23T13:09:44.821Z,32.29
2018-08-23T13:12:13.891Z,32.16
2018-08-23T13:14:42.465Z,31.89
2018-08-23T13:17:12.563Z,31.40
2018-08-23T13:19:41.508Z,31.22
2018-08-23T13:22:10.172Z,31.00
2018-08-23T13:24:49.512Z,30.91
2018-08-23T13:27:18.281Z,31.00
2018-08-23T13:29:47.724Z,30.96
2018-08-23T13:32:17.249Z,30.86
2018-08-23T13:34:46.278Z,30.91
2018-08-23T13:37:14.927Z,31.00
2018-08-23T13:39:44.403Z,31.10
2018-08-23T13:42:13.197Z,30.99
2018-08-23T13:44:42.351Z,30.84
2018-08-23T13:47:11.361Z,30.64
2018-08-23T13:49:40.524Z,30.43
2018-08-23T13:52:09.548Z,30.39
2018-08-23T13:54:39.364Z,30.28
2018-08-23T13:57:08.213Z,30.29
2018-08-23T13:59:37.583Z,30.15
2018-08-23T14:02:06.683Z,30.19
2018-08-23T14:04:35.459Z,30.18
2018-08-23T14:07:08.668Z,30.15
2018-08-23T14:09:40.639Z,30.37
2018-08-23T14:12:10.058Z,30.41
2018-08-23T14:14:40.079Z,30.21
2018-08-23T14:17:09.119Z,29.92
2018-08-23T14:19:38.214Z,29.81
2018-08-23T14:22:07.224Z,29.96
2018-08-23T14:24:36.325Z,30.00
2018-08-23T14:27:05.191Z,30.09
2018-08-23T14:29:33.910Z,30.24
2018-08-23T14:32:03.189Z,30.40
2018-08-23T14:34:32.102Z,30.36
2018-08-23T14:37:01.922Z,30.34
2018-08-23T14:39:30.673Z,30.36
2018-08-23T14:41:59.716Z,30.24
2018-08-23T14:44:28.550Z,30.17
2018-08-23T14:47:09.456Z,30.02
2018-08-23T14:49:38.521Z,29.76
2018-08-23T14:52:07.368Z,29.91
2018-08-23T14:54:41.606Z,30.05
2018-08-23T14:57:15.794Z,30.09
2018-08-23T14:59:51.164Z,29.97
2018-08-23T15:02:19.935Z,29.85
2018-08-23T15:04:49.362Z,30.02
2018-08-23T15:07:18.502Z,29.80
2018-08-23T15:09:47.540Z,29.77
2018-08-23T15:12:16.333Z,29.82
2018-08-23T15:14:45.106Z,29.88
2018-08-23T15:17:14.121Z,29.97
2018-08-23T15:19:42.955Z,29.83
2018-08-23T15:22:11.852Z,29.43
2018-08-23T15:24:40.894Z,29.44
2018-08-23T15:27:12.712Z,29.25
2018-08-23T15:29:41.796Z,29.17
2018-08-23T15:32:11.299Z,29.15
2018-08-23T15:34:41.020Z,29.12
2018-08-23T15:37:10.105Z,28.97
2018-08-23T15:39:40.673Z,28.82
2018-08-23T15:42:09.670Z,28.77
2018-08-23T15:44:38.408Z,28.66
2018-08-23T15:47:07.122Z,28.70
2018-08-23T15:49:36.484Z,28.64
2018-08-23T15:52:05.368Z,28.58
2018-08-23T15:54:34.388Z,28.41
2018-08-23T15:57:03.079Z,28.27
2018-08-23T15:59:32.941Z,28.17
2018-08-23T16:02:01.899Z,28.14
2018-08-23T16:04:30.782Z,28.24
2018-08-23T16:06:59.568Z,28.31
2018-08-23T16:09:28.822Z,28.29
2018-08-23T16:11:58.013Z,28.33
2018-08-23T16:14:27.118Z,28.25
2018-08-23T16:17:01.233Z,28.12
2018-08-23T16:19:35.068Z,27.71
2018-08-23T16:22:03.986Z,27.56
2018-08-23T16:24:32.791Z,27.34
2018-08-23T16:27:04.686Z,27.02
2018-08-23T16:29:33.301Z,26.89
2018-08-23T16:32:03.125Z,26.88
2018-08-23T16:34:31.684Z,26.90
2018-08-23T16:37:00.601Z,26.79
2018-08-23T16:39:29.322Z,26.62
2018-08-23T16:41:58.235Z,26.50
2018-08-23T16:44:26.983Z,26.44
2018-08-23T16:46:56.860Z,26.47
2018-08-23T16:49:26.007Z,26.44
2018-08-23T16:51:55.003Z,26.38
2018-08-23T16:54:24.184Z,26.36
2018-08-23T16:56:53.178Z,26.38
2018-08-23T16:59:22.088Z,26.37
2018-08-23T17:01:50.927Z,26.33
2018-08-23T17:04:20.137Z,26.30
2018-08-23T17:06:48.966Z,26.21
2018-08-23T17:09:17.821Z,26.12
2018-08-23T17:11:47.039Z,26.14
2018-08-23T17:14:16.370Z,26.22
2018-08-23T17:16:50.283Z,26.18
2018-08-23T17:19:19.329Z,26.20
2018-08-23T17:21:49.027Z,26.08
2018-08-23T17:24:18.545Z,26.02
2018-08-23T17:26:47.601Z,26.01
2018-08-23T17:29:16.570Z,25.85
2018-08-23T17:31:46.413Z,25.86
2018-08-23T17:34:15.704Z,25.81
2018-08-23T17:36:44.501Z,25.74
2018-08-23T17:39:13.165Z,25.64
2018-08-23T17:41:42.635Z,25.54
2018-08-23T17:44:11.553Z,25.49
2018-08-23T17:46:40.386Z,25.37
2018-08-23T17:49:10.113Z,25.33
2018-08-23T17:51:39.254Z,25.26
2018-08-23T17:54:08.241Z,25.20
2018-08-23T17:56:37.073Z,25.15
2018-08-23T17:59:05.928Z,25.12
2018-08-23T18:01:35.065Z,25.10
2018-08-23T18:04:04.642Z,25.10
2018-08-23T18:06:34.010Z,25.03
2018-08-23T18:09:03.072Z,24.93
2018-08-23T18:11:32.209Z,24.83
2018-08-23T18:14:01.615Z,24.72
2018-08-23T18:16:35.733Z,24.67
2018-08-23T18:19:04.958Z,24.68
2018-08-23T18:21:33.895Z,24.71
2018-08-23T18:24:02.861Z,24.72
2018-08-23T18:26:32.080Z,24.74
2018-08-23T18:29:02.116Z,24.75
2018-08-23T18:31:31.351Z,24.70
2018-08-23T18:34:00.407Z,24.71
2018-08-23T18:36:29.592Z,24.67
2018-08-23T18:38:58.566Z,24.64
2018-08-23T18:41:27.615Z,24.56
2018-08-23T18:43:57.031Z,24.53
2018-08-23T18:46:26.327Z,24.51
2018-08-23T18:48:58.584Z,24.49
2018-08-23T18:51:29.558Z,24.46
2018-08-23T18:53:59.151Z,24.41
2018-08-23T18:56:29.242Z,24.34
2018-08-23T18:58:58.665Z,24.29
2018-08-23T19:01:27.403Z,24.25
2018-08-23T19:03:56.396Z,24.23
2018-08-23T19:06:30.445Z,24.15
2018-08-23T19:08:59.427Z,24.13
2018-08-23T19:11:28.081Z,24.13
2018-08-23T19:13:56.821Z,24.10
2018-08-23T19:16:30.672Z,24.02
2018-08-23T19:18:59.868Z,23.96
2018-08-23T19:21:28.716Z,23.96
2018-08-23T19:23:57.602Z,23.93
2018-08-23T19:26:26.369Z,23.89
2018-08-23T19:28:55.770Z,23.88
2018-08-23T19:31:24.646Z,23.82
2018-08-23T19:33:53.528Z,23.78
2018-08-23T19:36:22.111Z,23.74
2018-08-23T19:38:51.262Z,23.71
2018-08-23T19:41:20.587Z,23.70
2018-08-23T19:43:49.206Z,23.66
2018-08-23T19:46:23.212Z,23.58
2018-08-23T19:48:57.269Z,23.55
2018-08-23T19:51:26.757Z,23.54
2018-08-23T19:53:56.258Z,23.53
2018-08-23T19:56:26.152Z,23.53
2018-08-23T19:58:55.185Z,23.50
2018-08-23T20:01:23.848Z,23.49
2018-08-23T20:04:03.178Z,23.47
2018-08-23T20:06:45.774Z,23.47
2018-08-23T20:09:20.306Z,23.45
2018-08-23T20:11:55.541Z,23.44
2018-08-23T20:14:30.978Z,23.40
2018-08-23T20:17:03.796Z,23.38
2018-08-23T20:19:35.337Z,23.33
2018-08-23T20:22:11.972Z,23.29
2018-08-23T20:24:45.373Z,23.28
2018-08-23T20:27:20.376Z,23.27
2018-08-23T20:30:02.952Z,23.22
2018-08-23T20:32:38.006Z,23.17
2018-08-23T20:35:08.280Z,23.12
2018-08-23T20:37:39.608Z,23.05
2018-08-23T20:42:47.498Z,22.98
2018-08-23T20:45:22.236Z,22.92
2018-08-23T20:48:00.535Z,22.93
2018-08-23T20:50:38.256Z,22.97
2018-08-23T20:53:12.525Z,22.95
2018-08-23T20:55:47.448Z,22.92
2018-08-23T20:58:20.342Z,22.87
2018-08-23T21:00:54.174Z,22.84
2018-08-23T21:03:26.173Z,22.83
2018-08-23T21:06:00.676Z,22.80
2018-08-23T21:08:37.395Z,22.76
2018-08-23T21:11:15.281Z,22.73
2018-08-23T21:13:48.106Z,22.71
2018-08-23T21:16:25.395Z,22.69
2018-08-23T21:18:58.300Z,22.69
2018-08-23T21:21:26.975Z,22.73
2018-08-23T21:23:56.231Z,22.73
2018-08-23T21:26:25.068Z,22.71
2018-08-23T21:28:54.649Z,22.75
2018-08-23T21:31:23.260Z,22.81
2018-08-23T21:33:52.052Z,22.81
2018-08-23T21:36:20.837Z,22.81
2018-08-23T21:38:49.900Z,22.82
2018-08-23T21:41:19.567Z,22.84
2018-08-23T21:43:48.265Z,22.86
2018-08-23T21:46:16.829Z,22.87
2018-08-23T21:48:45.441Z,22.87
2018-08-23T21:51:14.381Z,22.87
2018-08-23T21:53:43.674Z,22.86
2018-08-23T21:56:17.748Z,22.82
2018-08-23T21:58:46.378Z,22.84
2018-08-23T22:01:15.999Z,22.82
2018-08-23T22:03:44.650Z,22.81
2018-08-23T22:06:13.377Z,22.82
2018-08-23T22:08:42.423Z,22.81
2018-08-23T22:11:11.032Z,22.84
2018-08-23T22:13:40.181Z,22.87
2018-08-23T22:16:09.217Z,22.84
2018-08-23T22:18:38.642Z,22.85
2018-08-23T22:21:07.265Z,22.85
2018-08-23T22:23:35.910Z,22.81
2018-08-23T22:26:05.263Z,22.80
2018-08-23T22:28:33.926Z,22.76
2018-08-23T22:31:02.479Z,22.78
2018-08-23T22:33:31.313Z,22.76
2018-08-23T22:36:00.734Z,22.69
2018-08-23T22:38:29.689Z,22.70
2018-08-23T22:40:58.570Z,22.65
2018-08-23T22:43:27.218Z,22.63
2018-08-23T22:45:55.970Z,22.61
2018-08-23T22:48:24.668Z,22.63
2018-08-23T22:50:53.865Z,22.66
2018-08-23T22:53:22.381Z,22.61
2018-08-23T22:55:51.089Z,22.52
2018-08-23T22:58:19.868Z,22.52
2018-08-23T23:00:49.204Z,22.53
2018-08-23T23:03:23.266Z,22.56
2018-08-23T23:05:52.676Z,22.57
2018-08-23T23:08:21.201Z,22.56
2018-08-23T23:10:49.846Z,22.59
2018-08-23T23:13:18.813Z,22.53
2018-08-23T23:15:47.397Z,22.45
2018-08-23T23:18:15.993Z,22.47
2018-08-23T23:20:44.864Z,22.44
2018-08-23T23:23:13.524Z,22.40
2018-08-23T23:25:42.197Z,22.30
2018-08-23T23:28:10.747Z,22.12
2018-08-23T23:30:39.325Z,21.90
2018-08-23T23:33:07.885Z,21.75
2018-08-23T23:35:36.513Z,21.70
2018-08-23T23:38:05.876Z,21.60
2018-08-23T23:40:34.482Z,21.59
2018-08-23T23:43:03.288Z,21.54
2018-08-23T23:45:32.001Z,21.48
2018-08-23T23:48:00.773Z,21.44
2018-08-23T23:50:29.875Z,21.46
2018-08-23T23:52:58.650Z,21.41
2018-08-23T23:55:27.501Z,21.36
2018-08-23T23:57:56.337Z,21.37
